Time;durP1;ratioP1;P1;durP2;ratioP2;P2;SDS_P1;SDS_P2;PMS_P1;PMS_P2;Temp;Humidity;BMP_temperature;BMP_pressure;BME280_temperature;BME280_humidity;BME280_pressure;Samples;Min_cycle;Max_cycle;Signal;HPM_P1;HPM_P2
2022/01/30 00:01:07;;;;;;;3.40;2.33;;;11.60;60.40;;;;;;5008305;28;20480;-86
2022/01/30 00:03:34;;;;;;;8.63;3.40;;;11.50;60.80;;;;;;5010010;28;21259;-85
2022/01/30 00:06:01;;;;;;;6.53;2.53;;;11.60;61.30;;;;;;5023822;28;20471;-85
2022/01/30 00:08:29;;;;;;;4.50;2.30;;;11.40;60.30;;;;;;4999741;28;20492;-85
2022/01/30 00:11:05;;;;;;;4.70;2.93;;;11.20;60.20;;;;;;5010950;28;20540;-85
2022/01/30 00:13:32;;;;;;;9.50;2.63;;;11.10;60.90;;;;;;5013479;28;20462;-84
2022/01/30 00:16:04;;;;;;;8.03;2.83;;;11.20;60.00;;;;;;5012877;28;20504;-84
2022/01/30 00:18:44;;;;;;;12.87;3.50;;;11.40;60.70;;;;;;5013624;28;20455;-85
2022/01/30 00:21:17;;;;;;;2.40;2.20;;;11.60;60.50;;;;;;5010315;28;20455;-85
2022/01/30 00:23:50;;;;;;;11.23;2.37;;;11.70;59.50;;;;;;5008922;28;20450;-85
2022/01/30 00:26:20;;;;;;;10.37;3.70;;;11.60;59.60;;;;;;5028465;28;20475;-85
2022/01/30 00:28:46;;;;;;;27.43;10.70;;;11.60;60.00;;;;;;5012369;28;20459;-83
2022/01/30 00:31:17;;;;;;;16.70;7.73;;;11.80;59.90;;;;;;5016492;28;20520;-84
2022/01/30 00:33:44;;;;;;;11.30;4.20;;;11.80;59.30;;;;;;5001552;28;20570;-84
2022/01/30 00:36:11;;;;;;;8.57;4.63;;;12.00;59.00;;;;;;5010725;28;20523;-85
2022/01/30 00:38:38;;;;;;;10.93;3.60;;;11.90;58.90;;;;;;5014570;28;20455;-84
2022/01/30 00:41:05;;;;;;;3.20;2.90;;;12.00;59.10;;;;;;5010752;28;20462;-85
2022/01/30 00:43:33;;;;;;;9.60;3.73;;;12.00;58.90;;;;;;5028412;28;20466;-85
2022/01/30 00:46:00;;;;;;;6.20;3.00;;;12.00;58.50;;;;;;5017685;28;20574;-85
2022/01/30 00:48:27;;;;;;;4.90;2.20;;;12.10;58.40;;;;;;5014018;28;20474;-84
2022/01/30 00:50:55;;;;;;;4.93;2.27;;;12.10;58.30;;;;;;5011030;28;20478;-85
2022/01/30 00:53:22;;;;;;;8.10;2.60;;;11.90;58.20;;;;;;4995406;28;20547;-85
2022/01/30 00:55:49;;;;;;;3.73;2.13;;;11.50;58.70;;;;;;5002405;28;20513;-85
2022/01/30 00:58:16;;;;;;;3.20;1.87;;;11.40;58.80;;;;;;5010370;28;20446;-84
2022/01/30 01:00:45;;;;;;;5.57;2.40;;;11.30;59.40;;;;;;5011925;28;20964;-85
2022/01/30 01:03:12;;;;;;;10.23;2.33;;;11.50;59.40;;;;;;4994307;28;20604;-85
2022/01/30 01:05:40;;;;;;;3.13;2.20;;;11.70;59.20;;;;;;5018317;28;20776;-83
2022/01/30 01:08:15;;;;;;;6.80;2.40;;;11.60;58.80;;;;;;5010437;28;21005;-85
2022/01/30 01:10:47;;;;;;;6.57;2.63;;;11.60;58.70;;;;;;5019051;28;20449;-85
2022/01/30 01:13:37;;;;;;;6.13;2.37;;;11.70;58.60;;;;;;4997245;28;20462;-85
2022/01/30 01:24:19;;;;;;;6.53;2.33;;;11.70;58.30;;;;;;5033319;28;20582;-83
2022/01/30 01:26:46;;;;;;;9.60;2.57;;;11.80;58.10;;;;;;5031495;28;21009;-85
2022/01/30 01:29:15;;;;;;;8.20;3.27;;;11.80;58.00;;;;;;5005426;28;20804;-85
2022/01/30 01:31:43;;;;;;;5.27;2.73;;;11.90;58.20;;;;;;5020023;28;20553;-86
2022/01/30 01:36:53;;;;;;;8.20;2.50;;;11.80;58.40;;;;;;5011916;28;20513;-85
2022/01/30 01:39:20;;;;;;;3.10;2.10;;;11.70;58.40;;;;;;5015323;28;20447;-83
2022/01/30 01:41:47;;;;;;;6.13;3.40;;;11.60;58.40;;;;;;5005173;28;20481;-85
2022/01/30 01:44:16;;;;;;;12.67;2.70;;;11.50;58.40;;;;;;5017311;28;20500;-85
2022/01/30 01:46:45;;;;;;;7.70;2.00;;;11.50;57.90;;;;;;5014662;28;20970;-84
2022/01/30 01:49:19;;;;;;;5.43;2.30;;;11.50;57.60;;;;;;5014128;28;20462;-85
2022/01/30 01:51:50;;;;;;;6.63;2.43;;;11.50;57.50;;;;;;5020487;28;20461;-84
2022/01/30 01:54:17;;;;;;;3.63;2.17;;;11.50;57.20;;;;;;5015783;28;20481;-85
2022/01/30 01:56:44;;;;;;;5.67;2.73;;;11.50;56.60;;;;;;5015923;28;20783;-84
2022/01/30 01:59:18;;;;;;;6.03;1.70;;;11.50;56.40;;;;;;5015274;28;20508;-84
2022/01/30 02:02:12;;;;;;;6.53;2.20;;;11.40;56.40;;;;;;5028900;28;20462;-85
2022/01/30 02:04:41;;;;;;;8.80;2.47;;;11.40;56.30;;;;;;4999570;28;20482;-85
2022/01/30 02:10:01;;;;;;;8.20;2.27;;;11.10;55.10;;;;;;4984391;28;20459;-85
2022/01/30 02:12:35;;;;;;;9.73;2.93;;;11.20;55.50;;;;;;5015438;28;20458;-85
2022/01/30 02:15:16;;;;;;;4.67;2.37;;;11.30;54.60;;;;;;5012640;28;20918;-85
2022/01/30 02:26:01;;;;;;;8.07;2.67;;;11.40;53.80;;;;;;5029326;28;20488;-85
2022/01/30 02:28:32;;;;;;;4.00;2.07;;;11.50;53.90;;;;;;5001676;28;20462;-86
2022/01/30 02:31:03;;;;;;;9.97;2.33;;;11.60;53.30;;;;;;5013909;28;20865;-84
2022/01/30 02:33:30;;;;;;;4.10;2.20;;;11.50;52.60;;;;;;5020910;28;20451;-85
2022/01/30 02:35:57;;;;;;;5.13;2.20;;;11.60;53.20;;;;;;5001659;28;20828;-85
2022/01/30 02:38:26;;;;;;;9.40;2.43;;;11.80;54.10;;;;;;5012624;28;20832;-85
2022/01/30 02:40:57;;;;;;;4.00;2.23;;;11.60;51.70;;;;;;5021074;28;20458;-85
2022/01/30 02:43:29;;;;;;;14.70;2.73;;;11.50;52.20;;;;;;5020664;28;20463;-85
2022/01/30 02:46:06;;;;;;;8.07;2.63;;;11.50;51.60;;;;;;5005166;28;20482;-84
2022/01/30 02:48:48;;;;;;;7.00;2.63;;;11.40;53.10;;;;;;5016185;28;20981;-85
2022/01/30 02:51:17;;;;;;;11.13;3.40;;;11.30;52.60;;;;;;5016715;28;20561;-85
2022/01/30 02:53:54;;;;;;;5.57;2.50;;;11.30;52.40;;;;;;5028622;28;20459;-84
2022/01/30 02:56:22;;;;;;;8.47;3.00;;;11.30;52.80;;;;;;5013950;28;20484;-84
2022/01/30 02:58:50;;;;;;;9.27;2.97;;;11.20;52.10;;;;;;5001227;28;20462;-84
2022/01/30 03:01:17;;;;;;;8.97;2.20;;;11.20;52.60;;;;;;4998903;28;20456;-84
2022/01/30 03:03:45;;;;;;;6.20;1.90;;;11.40;52.20;;;;;;5013688;28;20489;-84
2022/01/30 03:06:12;;;;;;;8.30;2.67;;;11.40;51.50;;;;;;5015104;28;20982;-85
2022/01/30 03:08:39;;;;;;;5.70;3.27;;;11.10;51.20;;;;;;5016112;28;20458;-84
2022/01/30 03:11:07;;;;;;;8.30;2.80;;;11.10;52.00;;;;;;5010433;28;20909;-86
2022/01/30 03:13:35;;;;;;;3.00;2.03;;;11.10;51.10;;;;;;5003606;28;20491;-85
2022/01/30 03:16:03;;;;;;;10.23;2.70;;;11.00;51.90;;;;;;5015592;28;20549;-85
2022/01/30 03:18:32;;;;;;;7.93;1.90;;;11.00;51.50;;;;;;5014511;28;20466;-84
2022/01/30 03:20:59;;;;;;;4.73;2.10;;;11.10;51.40;;;;;;5016978;28;20455;-85
2022/01/30 03:23:27;;;;;;;6.07;2.67;;;11.30;51.40;;;;;;5031502;28;20573;-85
2022/01/30 03:25:57;;;;;;;10.60;2.07;;;11.10;50.60;;;;;;5011921;28;20487;-85
2022/01/30 03:28:35;;;;;;;6.17;1.77;;;11.00;49.80;;;;;;5011208;28;20461;-86
2022/01/30 03:31:17;;;;;;;3.40;3.10;;;10.60;50.50;;;;;;4996956;28;21062;-86
2022/01/30 03:33:46;;;;;;;7.33;2.20;;;10.60;50.40;;;;;;5013878;28;20469;-85
2022/01/30 03:36:13;;;;;;;5.60;1.67;;;10.80;50.00;;;;;;4981283;28;20482;-85
2022/01/30 03:38:42;;;;;;;13.37;2.57;;;10.70;49.40;;;;;;5013050;28;20553;-85
2022/01/30 03:41:09;;;;;;;7.53;2.37;;;10.60;49.20;;;;;;4999124;28;20483;-86
2022/01/30 03:43:40;;;;;;;6.77;2.10;;;10.60;49.80;;;;;;4980951;28;20470;-86
2022/01/30 03:46:07;;;;;;;5.23;1.90;;;10.60;49.30;;;;;;5012742;28;21033;-86
2022/01/30 03:48:34;;;;;;;8.47;1.83;;;10.60;50.40;;;;;;5012644;28;20458;-86
2022/01/30 03:51:08;;;;;;;5.63;2.27;;;10.70;49.90;;;;;;4994238;28;20464;-86
2022/01/30 03:53:35;;;;;;;8.80;2.53;;;10.80;49.60;;;;;;5018226;28;20827;-86
2022/01/30 03:56:02;;;;;;;6.77;2.50;;;10.60;48.70;;;;;;5003545;28;20708;-86
2022/01/30 03:58:32;;;;;;;6.63;2.50;;;10.50;48.80;;;;;;4998657;28;20529;-86
2022/01/30 04:01:06;;;;;;;3.00;1.50;;;10.50;49.90;;;;;;4998933;28;20455;-86
2022/01/30 04:03:35;;;;;;;7.60;2.33;;;10.60;48.50;;;;;;5011186;28;20987;-86
2022/01/30 04:06:03;;;;;;;4.00;1.83;;;10.60;49.60;;;;;;4999075;28;20465;-86
2022/01/30 04:08:31;;;;;;;10.40;2.40;;;10.80;49.00;;;;;;5010454;28;20827;-86
2022/01/30 04:11:14;;;;;;;8.60;2.33;;;10.70;48.80;;;;;;4993096;28;20542;-85
2022/01/30 04:13:50;;;;;;;8.47;2.30;;;10.50;49.00;;;;;;5012722;28;20469;-86
2022/01/30 04:16:36;;;;;;;9.27;1.87;;;10.60;48.70;;;;;;5009339;28;20502;-86
2022/01/30 04:19:31;;;;;;;8.80;2.13;;;10.50;48.40;;;;;;5011058;28;20956;-87
2022/01/30 04:22:04;;;;;;;3.80;3.13;;;10.40;49.10;;;;;;5012736;28;20466;-85
2022/01/30 04:25:02;;;;;;;4.80;2.27;;;10.30;48.70;;;;;;4985228;28;20616;-85
2022/01/30 04:27:48;;;;;;;8.47;2.30;;;10.20;48.90;;;;;;4992966;28;21054;-86
2022/01/30 04:30:32;;;;;;;5.00;2.00;;;10.10;48.50;;;;;;4993820;28;20827;-86
2022/01/30 04:33:20;;;;;;;1.97;1.60;;;10.10;49.10;;;;;;5015309;28;20767;-87
2022/01/30 04:36:06;;;;;;;9.70;2.73;;;10.30;48.80;;;;;;5012623;28;21205;-85
2022/01/30 04:38:57;;;;;;;12.60;2.20;;;10.00;48.70;;;;;;5000203;28;20537;-85
2022/01/30 04:42:20;;;;;;;6.10;2.13;;;9.90;49.90;;;;;;4979118;28;20554;-86
2022/01/30 04:57:20;;;;;;;6.00;2.80;;;10.30;47.30;;;;;;5002061;28;20478;-85
2022/01/30 05:00:47;;;;;;;9.10;2.87;;;10.30;46.90;;;;;;4996738;28;20481;-86
2022/01/30 05:03:36;;;;;;;3.87;1.83;;;10.30;46.00;;;;;;4998191;28;20853;-84
2022/01/30 05:06:53;;;;;;;8.90;1.80;;;9.90;46.40;;;;;;4984365;28;20476;-86
2022/01/30 05:09:39;;;;;;;4.73;2.10;;;9.80;47.00;;;;;;5013494;28;20458;-86
2022/01/30 05:12:15;;;;;;;8.93;2.43;;;9.90;47.10;;;;;;5028617;28;20463;-87
2022/01/30 05:14:42;;;;;;;3.57;2.10;;;10.00;46.30;;;;;;5029548;28;20468;-86
2022/01/30 05:17:45;;;;;;;6.50;3.10;;;9.70;47.60;;;;;;4998620;28;20605;-86
2022/01/30 05:20:19;;;;;;;6.90;2.30;;;9.90;47.20;;;;;;4974277;28;20857;-85
2022/01/30 05:23:05;;;;;;;6.13;2.40;;;10.10;46.90;;;;;;5030499;28;20550;-86
2022/01/30 05:25:37;;;;;;;5.57;2.30;;;10.20;46.30;;;;;;5013945;28;20518;-85
2022/01/30 05:28:11;;;;;;;9.00;2.90;;;10.20;45.80;;;;;;5020042;28;20633;-85
2022/01/30 05:31:02;;;;;;;3.70;2.00;;;10.30;46.20;;;;;;5029018;28;20459;-86
2022/01/30 05:33:39;;;;;;;8.10;2.83;;;10.00;45.80;;;;;;5013157;28;20575;-86
2022/01/30 05:36:33;;;;;;;7.00;1.70;;;9.90;47.30;;;;;;4995475;28;20562;-86
2022/01/30 05:39:35;;;;;;;6.13;2.60;;;9.90;45.90;;;;;;5020289;28;20454;-86
2022/01/30 05:42:23;;;;;;;17.67;3.23;;;9.80;46.80;;;;;;5014222;28;20824;-85
2022/01/30 05:45:13;;;;;;;5.37;2.50;;;9.70;46.60;;;;;;5011701;28;20474;-86
2022/01/30 05:48:09;;;;;;;3.23;1.57;;;9.60;46.00;;;;;;5007523;28;20473;-85
2022/01/30 05:50:44;;;;;;;7.53;2.43;;;9.60;45.20;;;;;;5009332;28;20450;-86
2022/01/30 05:53:24;;;;;;;9.77;3.47;;;9.40;45.70;;;;;;4992358;28;20665;-85
2022/01/30 05:55:55;;;;;;;8.67;4.63;;;9.20;46.00;;;;;;4985662;28;20652;-86
2022/01/30 05:58:26;;;;;;;6.10;2.83;;;9.30;46.00;;;;;;5014090;28;20470;-85
2022/01/30 06:01:12;;;;;;;4.97;2.20;;;9.40;46.70;;;;;;5016544;28;20839;-86
2022/01/30 06:03:39;;;;;;;10.97;2.90;;;9.50;45.30;;;;;;5010043;28;20494;-85
2022/01/30 06:06:07;;;;;;;12.90;3.23;;;9.60;46.20;;;;;;5012050;28;20490;-86
2022/01/30 06:08:42;;;;;;;9.47;2.53;;;9.70;46.60;;;;;;5002302;28;20450;-86
2022/01/30 06:11:10;;;;;;;12.97;2.43;;;9.50;46.60;;;;;;5012055;28;20463;-86
2022/01/30 06:13:38;;;;;;;10.80;1.80;;;9.50;46.30;;;;;;5012406;28;20556;-85
2022/01/30 06:16:06;;;;;;;13.03;3.27;;;9.60;46.10;;;;;;5010261;28;20553;-86
2022/01/30 06:18:34;;;;;;;4.77;2.60;;;9.70;47.10;;;;;;5028092;28;20455;-86
2022/01/30 06:21:10;;;;;;;12.70;2.77;;;9.70;46.60;;;;;;5013187;28;20458;-86
2022/01/30 06:23:59;;;;;;;5.10;2.00;;;9.70;47.10;;;;;;4991869;28;20465;-85
2022/01/30 06:26:45;;;;;;;12.30;3.17;;;9.80;46.80;;;;;;5016933;28;20585;-85
2022/01/30 06:29:31;;;;;;;8.00;2.57;;;9.90;47.10;;;;;;5014903;28;20454;-84
2022/01/30 06:32:16;;;;;;;7.03;2.33;;;10.00;45.30;;;;;;4999343;28;20594;-86
2022/01/30 06:34:59;;;;;;;8.83;2.60;;;9.80;45.90;;;;;;5013810;28;20579;-85
2022/01/30 06:37:44;;;;;;;7.43;2.67;;;9.60;46.70;;;;;;5016974;28;20450;-85
2022/01/30 06:40:45;;;;;;;6.97;2.40;;;9.80;46.40;;;;;;5003124;28;20758;-85
2022/01/30 06:43:31;;;;;;;9.90;2.53;;;9.60;46.40;;;;;;5016706;28;20818;-85
2022/01/30 06:46:17;;;;;;;13.13;2.53;;;9.60;46.70;;;;;;5013708;28;20490;-85
2022/01/30 06:49:07;;;;;;;2.80;1.80;;;9.50;46.80;;;;;;5007575;28;20541;-86
2022/01/30 06:52:11;;;;;;;3.30;2.27;;;9.50;47.10;;;;;;5005023;28;20818;-86
2022/01/30 06:55:17;;;;;;;6.40;2.70;;;9.50;46.70;;;;;;5010471;28;20486;-85
2022/01/30 06:58:04;;;;;;;12.80;2.77;;;9.50;47.10;;;;;;5020122;28;20473;-86
2022/01/30 07:00:54;;;;;;;9.83;1.80;;;9.40;47.40;;;;;;5014775;28;20463;-85
2022/01/30 07:03:47;;;;;;;15.17;2.23;;;9.40;46.60;;;;;;4995686;28;20439;-84
2022/01/30 07:06:23;;;;;;;6.63;1.97;;;9.40;46.90;;;;;;5030293;28;20500;-85
2022/01/30 07:08:50;;;;;;;10.83;3.13;;;9.30;47.40;;;;;;5014554;28;20852;-86
2022/01/30 07:11:17;;;;;;;8.93;2.37;;;9.50;46.40;;;;;;5020751;28;20473;-85
2022/01/30 07:13:45;;;;;;;6.53;2.10;;;9.70;47.10;;;;;;5003473;28;20541;-85
2022/01/30 07:16:12;;;;;;;4.90;2.60;;;9.80;46.40;;;;;;5014790;28;20501;-84
2022/01/30 07:18:39;;;;;;;9.70;2.63;;;9.50;46.50;;;;;;5012958;28;20454;-85
2022/01/30 07:21:09;;;;;;;7.80;2.00;;;9.50;46.50;;;;;;5001361;28;20447;-85
2022/01/30 07:23:36;;;;;;;6.93;2.27;;;9.50;46.60;;;;;;5013542;28;20459;-85
2022/01/30 07:26:03;;;;;;;13.17;2.17;;;9.60;47.30;;;;;;5000773;28;20973;-85
2022/01/30 07:28:31;;;;;;;7.07;2.37;;;9.70;46.40;;;;;;5013616;28;20959;-86
2022/01/30 07:31:00;;;;;;;10.30;2.70;;;9.50;46.40;;;;;;5013837;28;20458;-86
2022/01/30 07:33:27;;;;;;;4.60;1.57;;;9.80;47.50;;;;;;5015150;28;20541;-85
2022/01/30 07:35:55;;;;;;;8.50;2.20;;;9.70;46.30;;;;;;5015142;28;20478;-85
2022/01/30 07:38:22;;;;;;;4.53;1.90;;;9.70;46.70;;;;;;4983548;28;20455;-84
2022/01/30 07:40:49;;;;;;;4.00;2.13;;;9.70;46.90;;;;;;5018562;28;20467;-85
2022/01/30 07:43:16;;;;;;;13.93;3.07;;;9.40;46.80;;;;;;5019803;28;20482;-86
2022/01/30 07:45:53;;;;;;;12.27;4.67;;;9.30;48.00;;;;;;5000036;28;20466;-86
2022/01/30 07:48:21;;;;;;;7.67;2.00;;;9.40;47.80;;;;;;5012770;28;20460;-84
2022/01/30 07:50:48;;;;;;;16.77;3.70;;;9.40;47.40;;;;;;5002755;28;20951;-86
2022/01/30 07:53:15;;;;;;;14.93;3.73;;;9.40;48.20;;;;;;5020982;28;20489;-85
2022/01/30 07:55:42;;;;;;;13.43;2.80;;;9.30;47.60;;;;;;4993404;28;20486;-84
2022/01/30 07:58:10;;;;;;;10.33;2.30;;;9.40;47.70;;;;;;5013101;28;20455;-86
2022/01/30 08:00:37;;;;;;;7.80;2.00;;;9.00;47.70;;;;;;5013126;28;21418;-86
2022/01/30 08:03:04;;;;;;;5.27;2.40;;;9.10;48.30;;;;;;5013015;28;20457;-86
2022/01/30 08:05:32;;;;;;;8.90;2.23;;;9.20;48.20;;;;;;5014618;28;20479;-86
2022/01/30 08:07:59;;;;;;;9.03;2.60;;;9.20;49.10;;;;;;5011324;28;20468;-86
2022/01/30 08:10:26;;;;;;;5.93;1.77;;;9.10;48.80;;;;;;5011128;28;20562;-85
2022/01/30 08:12:53;;;;;;;7.93;2.77;;;9.10;49.30;;;;;;5010604;28;20443;-85
2022/01/30 08:15:20;;;;;;;7.13;2.93;;;9.00;49.70;;;;;;5026198;28;20470;-85
2022/01/30 08:17:48;;;;;;;4.70;1.90;;;9.10;49.60;;;;;;4988750;28;20482;-85
2022/01/30 08:20:15;;;;;;;5.10;2.00;;;9.20;49.40;;;;;;5002865;28;20898;-86
2022/01/30 08:22:48;;;;;;;10.80;1.57;;;9.40;48.90;;;;;;4987284;28;20594;-86
2022/01/30 08:25:16;;;;;;;13.73;5.00;;;9.60;48.80;;;;;;5011172;28;21194;-86
2022/01/30 08:27:43;;;;;;;7.57;1.87;;;9.40;48.50;;;;;;5009145;28;20458;-85
2022/01/30 08:30:11;;;;;;;6.37;3.30;;;9.20;48.50;;;;;;5011947;28;20823;-86
2022/01/30 08:32:39;;;;;;;7.00;2.60;;;9.10;49.10;;;;;;5013072;28;20458;-86
2022/01/30 08:35:08;;;;;;;5.97;2.37;;;9.20;49.40;;;;;;5012882;28;20478;-85
2022/01/30 08:37:36;;;;;;;12.10;2.40;;;9.10;49.70;;;;;;5013521;28;20509;-86
2022/01/30 08:40:06;;;;;;;4.97;1.60;;;9.10;49.80;;;;;;5013655;28;20526;-85
2022/01/30 08:42:33;;;;;;;6.53;2.50;;;8.90;49.80;;;;;;5009198;28;20455;-86
2022/01/30 08:45:00;;;;;;;29.03;7.70;;;9.00;50.30;;;;;;5011963;28;20896;-87
2022/01/30 08:47:27;;;;;;;4.70;1.50;;;8.90;49.80;;;;;;5026594;28;20458;-87
2022/01/30 08:49:54;;;;;;;8.03;2.30;;;8.70;50.80;;;;;;4996087;28;20852;-86
2022/01/30 08:52:22;;;;;;;6.43;2.03;;;8.80;51.00;;;;;;5007864;28;20946;-85
2022/01/30 08:54:50;;;;;;;10.70;2.17;;;8.90;51.00;;;;;;4993226;28;20575;-85
2022/01/30 08:57:19;;;;;;;6.30;2.40;;;9.00;50.30;;;;;;5008871;28;20814;-87
2022/01/30 08:59:47;;;;;;;4.17;2.10;;;9.20;49.80;;;;;;4996372;28;20454;-85
2022/01/30 09:02:14;;;;;;;9.20;1.90;;;9.30;49.90;;;;;;5013303;28;20458;-87
2022/01/30 09:04:41;;;;;;;5.40;1.80;;;9.20;50.20;;;;;;4983425;28;20455;-87
2022/01/30 09:07:08;;;;;;;5.93;1.80;;;9.10;50.10;;;;;;5028249;28;20469;-86
2022/01/30 09:09:35;;;;;;;10.17;2.23;;;9.20;50.70;;;;;;5025146;28;20534;-86
2022/01/30 09:12:03;;;;;;;2.67;1.67;;;9.20;50.50;;;;;;4983126;28;20853;-87
2022/01/30 09:14:32;;;;;;;9.50;2.00;;;9.30;51.20;;;;;;5010839;28;20942;-87
2022/01/30 09:16:59;;;;;;;11.03;2.17;;;9.40;49.90;;;;;;5011304;28;20475;-86
2022/01/30 09:19:26;;;;;;;7.90;1.87;;;9.50;50.80;;;;;;4999430;28;20455;-87
2022/01/30 09:21:53;;;;;;;6.43;2.13;;;9.50;50.90;;;;;;5011333;28;20459;-86
2022/01/30 09:24:20;;;;;;;8.83;2.37;;;9.30;49.60;;;;;;5009475;28;20746;-84
2022/01/30 09:26:47;;;;;;;3.73;2.20;;;9.10;50.10;;;;;;5006541;28;20463;-87
2022/01/30 09:29:14;;;;;;;5.20;2.20;;;9.20;50.90;;;;;;5026151;28;20692;-88
2022/01/30 09:31:42;;;;;;;7.97;3.37;;;9.40;49.90;;;;;;5012725;28;20470;-87
2022/01/30 09:34:09;;;;;;;5.63;2.40;;;9.50;50.20;;;;;;4993086;28;22240;-87
2022/01/30 09:36:36;;;;;;;8.50;3.77;;;9.60;49.90;;;;;;5013363;28;20775;-86
2022/01/30 09:39:03;;;;;;;8.43;4.77;;;9.40;49.10;;;;;;5014008;28;20458;-86
2022/01/30 09:41:30;;;;;;;2.90;2.00;;;9.30;49.40;;;;;;4997396;28;20446;-85
2022/01/30 09:44:00;;;;;;;5.10;2.20;;;9.30;49.80;;;;;;5012382;28;20474;-87
2022/01/30 09:46:29;;;;;;;4.77;1.87;;;9.20;50.30;;;;;;5009927;28;20513;-85
2022/01/30 09:48:59;;;;;;;8.20;2.40;;;9.30;50.50;;;;;;4997467;28;20443;-87
2022/01/30 09:51:26;;;;;;;4.17;2.23;;;9.30;49.80;;;;;;5015841;28;20817;-88
2022/01/30 09:53:53;;;;;;;5.80;2.30;;;9.40;49.50;;;;;;5011548;28;20453;-88
2022/01/30 09:56:20;;;;;;;6.60;3.00;;;9.10;49.50;;;;;;5015669;28;20511;-86
2022/01/30 09:58:47;;;;;;;17.50;3.20;;;9.10;50.20;;;;;;4982093;28;20474;-89
2022/01/30 10:01:14;;;;;;;17.00;2.57;;;9.50;49.60;;;;;;5013088;28;20462;-88
2022/01/30 10:03:41;;;;;;;7.63;2.70;;;9.70;49.60;;;;;;5028419;28;20842;-88
2022/01/30 10:06:13;;;;;;;5.20;2.57;;;9.70;48.40;;;;;;5014363;28;20812;-87
2022/01/30 10:08:44;;;;;;;5.33;2.13;;;9.70;48.20;;;;;;5010738;28;20455;-87
2022/01/30 10:11:29;;;;;;;3.03;1.57;;;9.80;48.60;;;;;;4999919;28;21032;-86
2022/01/30 10:14:07;;;;;;;20.73;8.47;;;9.90;48.50;;;;;;5018856;28;20466;-88
2022/01/30 10:16:37;;;;;;;8.00;3.00;;;9.80;48.10;;;;;;5000949;28;20475;-88
2022/01/30 10:19:13;;;;;;;6.60;2.90;;;10.00;47.10;;;;;;5027825;28;20471;-87
2022/01/30 10:21:41;;;;;;;4.70;2.03;;;10.10;46.60;;;;;;5011899;28;20480;-86
2022/01/30 10:24:23;;;;;;;7.30;2.50;;;10.00;45.90;;;;;;5029279;28;20501;-87
2022/01/30 10:26:51;;;;;;;6.60;2.97;;;10.00;46.30;;;;;;4996804;28;20475;-86
2022/01/30 10:29:21;;;;;;;8.50;2.87;;;10.10;47.10;;;;;;5013252;28;20466;-88
2022/01/30 10:32:06;;;;;;;4.63;2.10;;;10.00;45.50;;;;;;5011112;28;20451;-88
2022/01/30 10:34:35;;;;;;;8.17;2.03;;;10.00;46.40;;;;;;5029468;28;20544;-85
2022/01/30 10:37:22;;;;;;;7.13;2.03;;;9.90;47.10;;;;;;5019281;28;20982;-85
2022/01/30 10:40:11;;;;;;;5.13;2.17;;;9.90;47.40;;;;;;5015982;28;20465;-88
2022/01/30 10:42:41;;;;;;;10.10;2.63;;;9.80;47.10;;;;;;5014174;28;20466;-86
2022/01/30 10:45:10;;;;;;;7.10;2.50;;;9.90;47.10;;;;;;5010436;28;20982;-85
2022/01/30 10:47:39;;;;;;;10.87;1.80;;;10.00;46.10;;;;;;5013754;28;21156;-86
2022/01/30 10:50:10;;;;;;;5.40;3.30;;;9.90;46.90;;;;;;5015186;28;20469;-88
2022/01/30 10:52:59;;;;;;;6.37;2.23;;;9.60;47.50;;;;;;5019275;28;20471;-87
2022/01/30 10:55:35;;;;;;;6.07;2.03;;;9.70;47.30;;;;;;5026957;28;20486;-87
2022/01/30 10:58:03;;;;;;;4.63;2.30;;;9.80;46.70;;;;;;5009447;28;20485;-86
2022/01/30 11:00:41;;;;;;;5.70;3.30;;;10.10;46.10;;;;;;5012714;28;20466;-87
2022/01/30 11:03:10;;;;;;;6.70;2.50;;;10.20;46.20;;;;;;5028393;28;20473;-87
2022/01/30 11:05:54;;;;;;;9.43;1.93;;;10.40;45.20;;;;;;5028915;28;20520;-87
2022/01/30 11:08:26;;;;;;;9.20;2.40;;;10.00;44.80;;;;;;5010423;28;20458;-88
2022/01/30 11:11:01;;;;;;;2.40;1.70;;;10.00;44.70;;;;;;5027938;28;21077;-86
2022/01/30 11:13:33;;;;;;;7.77;3.03;;;10.00;44.40;;;;;;5008207;28;20591;-88
2022/01/30 11:18:44;;;;;;;4.23;2.53;;;10.20;44.00;;;;;;5009724;28;20623;-87
2022/01/30 11:21:11;;;;;;;5.93;2.03;;;10.10;44.20;;;;;;4994809;28;20470;-87
2022/01/30 11:23:42;;;;;;;6.60;2.97;;;10.00;43.20;;;;;;5013033;28;20853;-88
2022/01/30 11:26:10;;;;;;;8.33;2.43;;;10.00;44.20;;;;;;5011405;28;20819;-88
2022/01/30 11:28:38;;;;;;;7.67;2.10;;;10.10;44.30;;;;;;5027285;28;20463;-87
2022/01/30 11:31:06;;;;;;;6.70;2.20;;;10.30;44.80;;;;;;5002053;28;20462;-88
2022/01/30 11:33:34;;;;;;;7.83;2.30;;;10.20;43.60;;;;;;5029566;28;20461;-87
2022/01/30 11:36:02;;;;;;;4.47;3.00;;;10.30;43.70;;;;;;5000290;28;20474;-88
2022/01/30 11:38:29;;;;;;;3.37;2.03;;;10.30;43.20;;;;;;5013959;28;20497;-88
2022/01/30 11:41:15;;;;;;;3.80;2.00;;;10.30;43.40;;;;;;4996840;28;20455;-87
2022/01/30 11:44:02;;;;;;;6.33;1.80;;;10.20;43.10;;;;;;5015055;28;21366;-88
2022/01/30 11:46:30;;;;;;;33.87;10.00;;;10.20;42.90;;;;;;5016815;28;20626;-88
2022/01/30 11:49:11;;;;;;;32.40;12.47;;;10.30;43.50;;;;;;5029364;28;20985;-88
2022/01/30 11:51:49;;;;;;;14.27;8.27;;;10.10;43.60;;;;;;5003449;28;20474;-87
2022/01/30 11:54:36;;;;;;;7.13;2.90;;;10.00;44.10;;;;;;4997532;28;20459;-88
2022/01/30 11:57:04;;;;;;;11.07;2.30;;;10.20;44.30;;;;;;4991173;28;20466;-87
2022/01/30 11:59:38;;;;;;;8.70;2.30;;;10.20;43.80;;;;;;5011099;28;20458;-87
2022/01/30 12:02:23;;;;;;;8.27;2.43;;;10.30;44.10;;;;;;5027206;28;20560;-88
2022/01/30 12:04:55;;;;;;;11.03;2.77;;;10.50;43.60;;;;;;5012012;28;20482;-88
2022/01/30 12:07:36;;;;;;;8.13;2.93;;;10.20;43.30;;;;;;5015684;28;20454;-88
2022/01/30 12:10:33;;;;;;;6.33;2.40;;;10.00;43.90;;;;;;4997067;28;21016;-88
2022/01/30 12:13:02;;;;;;;12.80;2.90;;;9.90;45.60;;;;;;4999010;28;20838;-88
2022/01/30 12:15:36;;;;;;;9.20;2.40;;;9.90;45.10;;;;;;5015151;28;20471;-89
2022/01/30 12:18:05;;;;;;;14.93;2.77;;;10.10;45.10;;;;;;4998531;28;21207;-88
2022/01/30 12:20:54;;;;;;;16.43;3.20;;;10.20;43.60;;;;;;5015172;28;20473;-89
2022/01/30 12:23:25;;;;;;;10.73;2.07;;;10.40;44.10;;;;;;5002602;28;20467;-87
2022/01/30 12:25:58;;;;;;;8.23;2.63;;;10.60;44.00;;;;;;5017575;28;20553;-86
2022/01/30 12:28:41;;;;;;;10.50;2.30;;;10.60;43.60;;;;;;5001184;28;20584;-87
2022/01/30 12:31:26;;;;;;;4.60;2.70;;;10.30;42.90;;;;;;5013212;28;20471;-86
2022/01/30 12:34:02;;;;;;;8.10;2.40;;;10.30;43.10;;;;;;5014547;28;20537;-85
2022/01/30 12:36:32;;;;;;;5.40;2.30;;;10.10;42.80;;;;;;5014216;28;20470;-88
2022/01/30 12:39:02;;;;;;;6.83;1.90;;;10.10;44.10;;;;;;4997069;28;20475;-87
2022/01/30 12:41:30;;;;;;;9.10;3.30;;;10.20;43.60;;;;;;5011768;28;20539;-86
2022/01/30 12:44:00;;;;;;;5.87;2.07;;;10.20;43.30;;;;;;5008100;28;20499;-86
2022/01/30 12:46:29;;;;;;;5.87;2.80;;;10.50;43.60;;;;;;5000753;28;20545;-85
2022/01/30 12:49:09;;;;;;;6.77;2.63;;;10.60;43.20;;;;;;5026851;28;21145;-86
2022/01/30 12:51:38;;;;;;;16.13;4.67;;;10.70;43.50;;;;;;5004154;28;20451;-87
2022/01/30 12:54:06;;;;;;;5.23;3.13;;;10.70;43.30;;;;;;4995207;28;20454;-87
2022/01/30 12:56:35;;;;;;;7.23;2.43;;;10.80;42.80;;;;;;5012895;28;20504;-86
2022/01/30 12:59:07;;;;;;;8.53;2.63;;;10.70;42.40;;;;;;4995233;28;20474;-86
2022/01/30 13:01:37;;;;;;;5.90;2.33;;;10.60;42.70;;;;;;5013303;28;20458;-87
2022/01/30 13:04:07;;;;;;;7.10;3.30;;;10.60;42.80;;;;;;5013363;28;20459;-87
2022/01/30 13:06:36;;;;;;;6.80;3.00;;;10.70;43.40;;;;;;5011832;28;20483;-86
2022/01/30 13:09:04;;;;;;;9.57;2.70;;;10.50;43.50;;;;;;5001933;28;20461;-87
2022/01/30 13:11:32;;;;;;;9.63;2.60;;;10.30;43.30;;;;;;5015335;28;20537;-85
2022/01/30 13:14:01;;;;;;;6.70;2.33;;;10.30;43.40;;;;;;5004934;28;20646;-86
2022/01/30 13:16:31;;;;;;;14.70;2.53;;;10.10;43.50;;;;;;5023382;28;20468;-86
2022/01/30 13:18:59;;;;;;;7.20;2.17;;;10.20;42.90;;;;;;5009957;28;20479;-85
2022/01/30 13:21:30;;;;;;;11.53;2.77;;;10.20;42.70;;;;;;5015148;28;20454;-86
2022/01/30 13:23:58;;;;;;;11.73;3.80;;;10.30;43.70;;;;;;5015853;28;20542;-86
2022/01/30 13:26:43;;;;;;;6.97;2.30;;;10.50;43.60;;;;;;5013640;28;20475;-87
2022/01/30 13:29:14;;;;;;;9.77;3.40;;;10.70;43.50;;;;;;5015476;28;20458;-86
2022/01/30 13:31:42;;;;;;;6.90;2.90;;;10.80;43.40;;;;;;4996600;28;20481;-86
2022/01/30 13:34:16;;;;;;;9.63;2.57;;;10.80;42.80;;;;;;5002829;28;20462;-86
2022/01/30 13:36:53;;;;;;;6.37;3.20;;;10.70;42.20;;;;;;5017080;28;20482;-87
2022/01/30 13:39:29;;;;;;;4.37;2.73;;;10.80;43.10;;;;;;5031056;28;20483;-86
2022/01/30 13:42:27;;;;;;;8.77;2.63;;;10.70;42.40;;;;;;5015358;28;20461;-87
2022/01/30 13:45:06;;;;;;;9.20;3.07;;;10.50;43.20;;;;;;5012372;28;20490;-85
2022/01/30 13:47:34;;;;;;;16.47;5.17;;;10.70;43.10;;;;;;5020499;28;20480;-87
2022/01/30 13:50:01;;;;;;;14.63;3.80;;;10.70;42.00;;;;;;4990355;28;20459;-86
2022/01/30 13:52:32;;;;;;;9.43;3.97;;;10.90;42.10;;;;;;5015169;28;20439;-87
2022/01/30 13:55:00;;;;;;;8.67;3.40;;;10.90;42.20;;;;;;5014125;28;20487;-86
2022/01/30 13:57:33;;;;;;;7.70;3.67;;;11.00;42.40;;;;;;4984676;28;20458;-87